Time;durP1;ratioP1;P1;durP2;ratioP2;P2;SDS_P1;SDS_P2;PMS_P1;PMS_P2;Temp;Humidity;BMP_temperature;BMP_pressure;BME280_temperature;BME280_humidity;BME280_pressure;Samples;Min_cycle;Max_cycle;Signal;HPM_P1;HPM_P2
2021/05/03 00:01:20;;;;;;;;;;;;;;;18.37;82.22;100500.84;1808235;78;20240;-74
2021/05/03 00:03:48;;;;;;;;;;;;;;;18.33;82.32;100494.23;1808365;79;20284;-74
2021/05/03 00:06:16;;;;;;;;;;;;;;;18.32;82.41;100497.35;1808329;79;22100;-74
2021/05/03 00:08:44;;;;;;;;;;;;;;;18.36;82.16;100488.67;1808366;78;20626;-74
2021/05/03 00:11:11;;;;;;;;;;;;;;;18.38;81.85;100486.70;1808258;78;20581;-74
2021/05/03 00:13:40;;;;;;;;;;;;;;;18.41;81.51;100494.30;1811748;79;20545;-74
2021/05/03 00:16:08;;;;;;;;;;;;;;;18.42;81.26;100507.76;1811566;79;20562;-75
2021/05/03 00:18:36;;;;;;;;;;;;;;;18.42;81.09;100503.33;1811759;79;21262;-74
2021/05/03 00:21:04;;;;;;;;;;;;;;;18.39;81.00;100499.70;1811478;79;20248;-74
2021/05/03 00:23:31;;;;;;;;;;;;;;;18.36;81.04;100494.76;1811796;79;20236;-74
2021/05/03 00:25:59;;;;;;;;;;;;;;;18.32;81.12;100488.64;1811780;79;20839;-74
2021/05/03 00:28:27;;;;;;;;;;;;;;;18.29;81.20;100495.52;1811683;79;20248;-74
2021/05/03 00:30:57;;;;;;;;;;;;;;;18.27;81.49;100503.57;1811704;79;20152;-74
2021/05/03 00:33:24;;;;;;;;;;;;;;;18.26;81.69;100503.70;1811707;79;20252;-74
2021/05/03 00:35:53;;;;;;;;;;;;;;;18.24;81.87;100501.73;1811728;79;20224;-74
2021/05/03 00:38:20;;;;;;;;;;;;;;;18.23;81.85;100505.33;1811664;79;20302;-74
2021/05/03 00:40:50;;;;;;;;;;;;;;;18.22;81.94;100508.44;1811635;79;20247;-75
2021/05/03 00:43:23;;;;;;;;;;;;;;;18.22;81.99;100516.33;1811615;79;21246;-76
2021/05/03 00:45:48;;;;;;;;;;;;;;;18.20;82.14;100515.66;1811270;78;20196;-75
2021/05/03 00:48:16;;;;;;;;;;;;;;;18.18;82.37;100516.32;1811625;79;20240;-75
2021/05/03 00:50:43;;;;;;;;;;;;;;;18.13;82.44;100513.31;1811701;79;20240;-74
2021/05/03 00:53:11;;;;;;;;;;;;;;;18.06;82.69;100507.02;1811478;79;20192;-74
2021/05/03 00:55:39;;;;;;;;;;;;;;;17.99;83.04;100498.13;1811561;79;21186;-75
2021/05/03 00:58:07;;;;;;;;;;;;;;;17.91;83.25;100502.81;1811656;79;20196;-74
2021/05/03 01:00:34;;;;;;;;;;;;;;;17.82;83.60;100501.58;1811711;79;20688;-73
2021/05/03 01:03:02;;;;;;;;;;;;;;;17.78;83.91;100511.55;1811565;79;20235;-74
2021/05/03 01:05:29;;;;;;;;;;;;;;;17.75;84.17;100518.42;1811648;79;20228;-74
2021/05/03 01:07:59;;;;;;;;;;;;;;;17.74;84.37;100533.02;1811517;79;21177;-75
2021/05/03 01:10:28;;;;;;;;;;;;;;;17.73;84.48;100544.48;1811571;79;20239;-76
2021/05/03 01:12:56;;;;;;;;;;;;;;;17.66;84.86;100529.82;1809290;78;20532;-75
2021/05/03 01:15:24;;;;;;;;;;;;;;;17.61;85.67;100535.19;1808293;78;20514;-75
2021/05/03 01:17:57;;;;;;;;;;;;;;;17.58;86.05;100532.86;1808230;79;20260;-74
2021/05/03 01:20:28;;;;;;;;;;;;;;;17.56;86.25;100536.94;1808393;79;21191;-73
2021/05/03 01:22:57;;;;;;;;;;;;;;;17.55;86.16;100542.31;1807984;78;20176;-73
2021/05/03 01:25:28;;;;;;;;;;;;;;;17.54;86.24;100548.05;1808265;79;20189;-73
2021/05/03 01:27:56;;;;;;;;;;;;;;;17.54;86.31;100547.21;1808161;79;20244;-75
2021/05/03 01:30:30;;;;;;;;;;;;;;;17.53;86.20;100535.89;1808287;78;20232;-75
2021/05/03 01:32:59;;;;;;;;;;;;;;;17.55;86.18;100529.20;1808208;78;21437;-74
2021/05/03 01:35:27;;;;;;;;;;;;;;;17.57;86.26;100525.95;1808152;78;20161;-74
2021/05/03 01:37:56;;;;;;;;;;;;;;;17.55;86.29;100521.32;1808112;79;20200;-74
2021/05/03 01:40:27;;;;;;;;;;;;;;;17.53;86.38;100524.56;1808184;78;20236;-74
2021/05/03 01:42:55;;;;;;;;;;;;;;;17.52;86.57;100534.74;1808236;79;20236;-74
2021/05/03 01:45:26;;;;;;;;;;;;;;;17.50;86.80;100537.50;1808362;79;21204;-73
2021/05/03 01:47:54;;;;;;;;;;;;;;;17.48;86.83;100538.14;1808155;79;20225;-74
2021/05/03 01:50:22;;;;;;;;;;;;;;;17.49;86.85;100546.33;1808220;78;20507;-73
2021/05/03 01:52:50;;;;;;;;;;;;;;;17.48;86.83;100549.13;1808328;79;20235;-74
2021/05/03 01:55:18;;;;;;;;;;;;;;;17.44;86.82;100548.59;1808371;78;20350;-72
2021/05/03 01:57:45;;;;;;;;;;;;;;;17.42;86.93;100549.23;1808390;79;21261;-74
2021/05/03 02:00:14;;;;;;;;;;;;;;;17.38;87.04;100551.33;1808116;78;20636;-73
2021/05/03 02:02:45;;;;;;;;;;;;;;;17.37;87.11;100552.77;1807978;79;20232;-73
2021/05/03 02:05:19;;;;;;;;;;;;;;;17.33;87.11;100552.71;1808301;79;20863;-74
2021/05/03 02:08:01;;;;;;;;;;;;;;;17.30;87.23;100553.02;1808279;78;20514;-74
2021/05/03 02:10:29;;;;;;;;;;;;;;;17.27;87.35;100554.61;1808433;78;21337;-73
2021/05/03 02:12:57;;;;;;;;;;;;;;;17.22;87.34;100557.70;1808200;78;20256;-75
2021/05/03 02:15:26;;;;;;;;;;;;;;;17.17;87.49;100553.84;1808157;79;20499;-74
2021/05/03 02:17:54;;;;;;;;;;;;;;;17.17;87.75;100549.42;1808101;79;20420;-75
2021/05/03 02:20:22;;;;;;;;;;;;;;;17.18;87.87;100547.62;1808342;79;20523;-73
2021/05/03 02:22:50;;;;;;;;;;;;;;;17.17;87.80;100540.24;1808307;78;20659;-74
2021/05/03 02:25:18;;;;;;;;;;;;;;;17.13;87.68;100542.84;1808191;78;20272;-74
2021/05/03 02:27:48;;;;;;;;;;;;;;;17.10;87.62;100544.45;1808430;78;20550;-73
2021/05/03 02:30:20;;;;;;;;;;;;;;;17.07;87.72;100546.02;1808426;79;20165;-75
2021/05/03 02:32:45;;;;;;;;;;;;;;;17.03;87.82;100539.44;1808137;79;20228;-74
2021/05/03 02:35:18;;;;;;;;;;;;;;;17.01;87.89;100547.11;1808225;79;21174;-74
2021/05/03 02:37:51;;;;;;;;;;;;;;;16.99;87.91;100545.10;1808273;78;20137;-74
2021/05/03 02:40:20;;;;;;;;;;;;;;;16.97;87.80;100549.20;1778670;79;20231;-74
2021/05/03 02:42:52;;;;;;;;;;;;;;;16.94;87.75;100544.24;1808154;79;20228;-74
2021/05/03 02:45:20;;;;;;;;;;;;;;;16.93;87.76;100542.58;1808007;78;20268;-74
2021/05/03 02:47:48;;;;;;;;;;;;;;;16.90;87.82;100541.08;1808241;78;21195;-73
2021/05/03 02:50:16;;;;;;;;;;;;;;;16.88;87.80;100536.45;1808268;78;20601;-73
2021/05/03 02:52:46;;;;;;;;;;;;;;;16.88;87.82;100525.13;1808223;79;20157;-73
2021/05/03 02:55:14;;;;;;;;;;;;;;;16.87;87.80;100516.95;1808251;79;20236;-72
2021/05/03 02:57:43;;;;;;;;;;;;;;;16.87;87.78;100512.55;1808351;79;20519;-74
2021/05/03 03:00:18;;;;;;;;;;;;;;;16.89;87.78;100515.83;1808303;78;22176;-73
2021/05/03 03:02:45;;;;;;;;;;;;;;;16.89;87.73;100511.07;1808030;78;20232;-72
2021/05/03 03:05:13;;;;;;;;;;;;;;;16.89;87.72;100504.03;1808326;78;20511;-73
2021/05/03 03:07:41;;;;;;;;;;;;;;;16.89;87.84;100505.34;1808234;79;20165;-73
2021/05/03 03:10:09;;;;;;;;;;;;;;;16.90;87.81;100499.62;1808093;78;20169;-73
2021/05/03 03:12:37;;;;;;;;;;;;;;;16.89;87.83;100496.66;1808291;78;21168;-73
2021/05/03 03:15:08;;;;;;;;;;;;;;;16.90;87.90;100501.77;1808496;79;20542;-72
2021/05/03 03:17:37;;;;;;;;;;;;;;;16.92;87.90;100514.23;1808517;79;20165;-74
2021/05/03 03:20:06;;;;;;;;;;;;;;;16.96;87.99;100528.35;1808450;79;20215;-73
2021/05/03 03:22:34;;;;;;;;;;;;;;;16.99;87.89;100531.99;1808560;79;20531;-75
2021/05/03 03:25:02;;;;;;;;;;;;;;;17.02;87.83;100533.84;1808394;78;21198;-73
2021/05/03 03:27:30;;;;;;;;;;;;;;;17.07;87.85;100541.28;1808384;78;20761;-75
2021/05/03 03:29:58;;;;;;;;;;;;;;;17.14;87.79;100541.84;1808452;78;20514;-74
2021/05/03 03:32:26;;;;;;;;;;;;;;;17.21;87.60;100546.86;1808360;79;20244;-74
2021/05/03 03:34:54;;;;;;;;;;;;;;;17.27;87.60;100554.14;1808408;79;20321;-74
2021/05/03 03:37:22;;;;;;;;;;;;;;;17.33;87.66;100548.78;1808504;78;21193;-74
2021/05/03 03:39:50;;;;;;;;;;;;;;;17.34;87.48;100543.41;1808345;79;20601;-74
2021/05/03 03:42:18;;;;;;;;;;;;;;;17.36;87.50;100551.11;1808203;79;20334;-73
2021/05/03 03:44:46;;;;;;;;;;;;;;;17.37;87.55;100556.22;1808377;79;20288;-73
2021/05/03 03:47:14;;;;;;;;;;;;;;;17.40;87.44;100562.48;1808540;79;20248;-73
2021/05/03 03:49:44;;;;;;;;;;;;;;;17.43;87.16;100568.75;1808663;78;22055;-73
2021/05/03 03:52:11;;;;;;;;;;;;;;;17.48;86.69;100574.05;1808188;78;20192;-73
2021/05/03 03:54:39;;;;;;;;;;;;;;;17.55;85.79;100580.36;1808322;78;20176;-73
2021/05/03 03:57:06;;;;;;;;;;;;;;;17.61;85.16;100585.05;1808474;79;20526;-73
2021/05/03 03:59:39;;;;;;;;;;;;;;;17.66;84.69;100582.79;1808536;78;20232;-73
2021/05/03 04:02:06;;;;;;;;;;;;;;;17.71;84.40;100580.56;1808303;79;22014;-73
2021/05/03 04:04:36;;;;;;;;;;;;;;;17.74;83.99;100592.87;1808578;79;20553;-74
2021/05/03 04:07:28;;;;;;;;;;;;;;;17.77;83.70;100604.39;1808480;79;20245;-74
2021/05/03 04:10:03;;;;;;;;;;;;;;;17.79;83.03;100616.06;1807086;79;20180;-72
2021/05/03 04:26:03;;;;;;;;;;;;;;;17.59;80.50;100644.22;1835145;78;20235;-78
2021/05/03 04:28:31;;;;;;;;;;;;;;;17.58;80.87;100650.44;1835223;78;21645;-75
2021/05/03 04:30:59;;;;;;;;;;;;;;;17.57;81.29;100655.84;1835058;78;20195;-79
2021/05/03 04:33:26;;;;;;;;;;;;;;;17.55;81.94;100661.70;1835398;78;20148;-76
2021/05/03 04:35:55;;;;;;;;;;;;;;;17.52;82.67;100661.48;1835154;78;20290;-74
2021/05/03 04:38:23;;;;;;;;;;;;;;;17.57;83.13;100655.84;1835199;78;20255;-74
2021/05/03 04:40:51;;;;;;;;;;;;;;;17.67;83.08;100648.75;1835248;78;21190;-77
2021/05/03 04:43:19;;;;;;;;;;;;;;;17.79;81.82;100650.19;1835224;78;20188;-78
2021/05/03 04:45:47;;;;;;;;;;;;;;;17.97;80.52;100654.97;1835178;78;20226;-77
2021/05/03 04:48:16;;;;;;;;;;;;;;;18.16;78.80;100651.38;1835116;78;20773;-78
2021/05/03 04:50:46;;;;;;;;;;;;;;;18.41;76.28;100663.27;1835249;78;20233;-75
2021/05/03 04:53:14;;;;;;;;;;;;;;;18.66;76.40;100661.71;1834964;78;21239;-76
2021/05/03 04:55:45;;;;;;;;;;;;;;;18.77;76.46;100675.08;1835225;78;20242;-74
2021/05/03 04:58:12;;;;;;;;;;;;;;;18.81;76.68;100687.78;1835334;78;20242;-76
2021/05/03 05:00:40;;;;;;;;;;;;;;;18.87;76.63;100698.16;1835280;78;20229;-78
2021/05/03 05:03:08;;;;;;;;;;;;;;;18.98;76.42;100709.77;1835221;78;20219;-72
2021/05/03 05:05:35;;;;;;;;;;;;;;;19.08;76.66;100728.87;1835388;78;22116;-78
2021/05/03 05:08:04;;;;;;;;;;;;;;;19.11;77.27;100724.65;1834991;78;20302;-73
2021/05/03 05:10:31;;;;;;;;;;;;;;;19.08;75.91;100723.61;1835136;78;20234;-72
2021/05/03 05:13:00;;;;;;;;;;;;;;;19.01;75.31;100705.51;1835070;78;20506;-74
2021/05/03 05:15:29;;;;;;;;;;;;;;;18.93;75.96;100690.48;1835064;78;20638;-74
2021/05/03 05:17:58;;;;;;;;;;;;;;;18.88;75.05;100686.19;1835222;78;22050;-75
2021/05/03 05:20:26;;;;;;;;;;;;;;;18.88;74.33;100692.77;1835082;78;20160;-74
2021/05/03 05:22:54;;;;;;;;;;;;;;;18.97;74.13;100710.24;1835300;78;20628;-75
2021/05/03 05:25:22;;;;;;;;;;;;;;;19.16;72.84;100730.27;1835414;78;20233;-72
2021/05/03 05:27:50;;;;;;;;;;;;;;;19.36;72.12;100742.72;1835193;78;20243;-74
2021/05/03 05:30:18;;;;;;;;;;;;;;;19.53;70.74;100733.95;1835298;78;21191;-80
2021/05/03 05:32:46;;;;;;;;;;;;;;;19.64;70.07;100735.48;1835129;78;20148;-76
2021/05/03 05:35:13;;;;;;;;;;;;;;;19.67;69.10;100749.16;1835257;78;20518;-78
2021/05/03 05:37:41;;;;;;;;;;;;;;;19.61;69.21;100801.13;1835375;78;20172;-72
2021/05/03 05:40:09;;;;;;;;;;;;;;;19.54;69.49;100836.95;1837326;78;20203;-73
2021/05/03 05:42:37;;;;;;;;;;;;;;;19.43;70.23;100818.28;1835400;78;22030;-74
2021/05/03 05:45:05;;;;;;;;;;;;;;;19.31;71.36;100714.72;1835241;78;20558;-78
2021/05/03 05:47:33;;;;;;;;;;;;;;;19.00;73.70;100673.60;1835215;78;20505;-77
2021/05/03 05:50:01;;;;;;;;;;;;;;;18.67;76.73;100650.20;1834876;78;20156;-74
2021/05/03 05:52:31;;;;;;;;;;;;;;;18.53;78.98;100641.56;1837248;78;20251;-75
2021/05/03 05:54:59;;;;;;;;;;;;;;;18.43;79.66;100677.09;1837183;78;21136;-74
2021/05/03 05:57:27;;;;;;;;;;;;;;;18.36;80.22;100714.14;1837158;78;20140;-75
2021/05/03 05:59:55;;;;;;;;;;;;;;;18.38;80.41;100734.99;1835033;78;20144;-75
2021/05/03 06:02:23;;;;;;;;;;;;;;;18.44;80.81;100726.02;1835026;78;20521;-75
2021/05/03 06:04:51;;;;;;;;;;;;;;;18.54;81.17;100712.05;1835108;78;20526;-73
2021/05/03 06:07:19;;;;;;;;;;;;;;;18.61;81.81;100707.33;1835172;78;21195;-75
2021/05/03 06:09:49;;;;;;;;;;;;;;;18.65;81.78;100714.42;1835167;78;20184;-72
2021/05/03 06:12:16;;;;;;;;;;;;;;;18.70;81.63;100728.75;1835112;78;20159;-78
2021/05/03 06:14:44;;;;;;;;;;;;;;;18.78;80.89;100710.92;1834867;78;20258;-74
2021/05/03 06:17:11;;;;;;;;;;;;;;;18.88;81.12;100702.45;1835024;78;20552;-72
2021/05/03 06:19:40;;;;;;;;;;;;;;;19.01;80.99;100692.36;1835413;78;21186;-76
2021/05/03 06:22:09;;;;;;;;;;;;;;;19.21;80.05;100708.25;1834977;78;20202;-74
2021/05/03 06:24:38;;;;;;;;;;;;;;;19.46;77.14;100709.27;1835181;78;20167;-74
2021/05/03 06:27:06;;;;;;;;;;;;;;;19.71;76.72;100719.40;1837216;78;20251;-74
2021/05/03 06:29:33;;;;;;;;;;;;;;;19.94;74.94;100726.55;1835166;78;20282;-73
2021/05/03 06:32:01;;;;;;;;;;;;;;;20.13;70.96;100733.87;1835135;78;21194;-74
2021/05/03 06:34:31;;;;;;;;;;;;;;;20.30;71.15;100744.30;1835145;78;20283;-74
2021/05/03 06:36:59;;;;;;;;;;;;;;;20.31;68.09;100760.45;1837282;78;20282;-71
2021/05/03 06:39:27;;;;;;;;;;;;;;;20.18;67.87;100787.73;1834995;78;20239;-80
2021/05/03 06:41:54;;;;;;;;;;;;;;;20.05;69.17;100812.38;1837165;78;20305;-76
2021/05/03 06:44:22;;;;;;;;;;;;;;;19.89;70.62;100841.27;1835187;78;21199;-76
2021/05/03 06:46:50;;;;;;;;;;;;;;;19.76;71.16;100849.59;1837214;78;20120;-75
2021/05/03 06:49:19;;;;;;;;;;;;;;;19.63;69.87;100830.75;1835481;78;20171;-77
2021/05/03 06:51:47;;;;;;;;;;;;;;;19.42;70.97;100798.71;1835553;78;20886;-77
2021/05/03 06:54:14;;;;;;;;;;;;;;;19.34;72.50;100774.44;1835322;78;20255;-77
2021/05/03 06:56:42;;;;;;;;;;;;;;;19.28;73.80;100779.49;1835311;78;21183;-75
2021/05/03 06:59:10;;;;;;;;;;;;;;;19.15;73.78;100785.16;1837324;78;20317;-74
2021/05/03 07:01:38;;;;;;;;;;;;;;;19.00;75.27;100786.21;1835431;78;20179;-74
2021/05/03 07:04:07;;;;;;;;;;;;;;;19.00;75.31;100783.58;1837226;78;20258;-76
2021/05/03 07:06:35;;;;;;;;;;;;;;;19.08;75.92;100788.58;1835362;78;20244;-74
2021/05/03 07:09:08;;;;;;;;;;;;;;;19.23;73.84;100802.34;1835439;78;21638;-79
2021/05/03 07:11:34;;;;;;;;;;;;;;;19.38;73.15;100816.58;1835444;78;20226;-72
2021/05/03 07:14:03;;;;;;;;;;;;;;;19.55;72.29;100799.13;1837347;78;20143;-74
2021/05/03 07:16:31;;;;;;;;;;;;;;;19.72;72.42;100785.57;1835987;78;20144;-72
2021/05/03 07:18:58;;;;;;;;;;;;;;;19.89;72.88;100789.91;1836016;78;20228;-72
2021/05/03 07:21:26;;;;;;;;;;;;;;;20.02;70.45;100800.84;1836226;78;21031;-74
2021/05/03 07:23:55;;;;;;;;;;;;;;;20.08;67.68;100804.16;1836155;78;20197;-73
2021/05/03 07:26:22;;;;;;;;;;;;;;;20.03;66.78;100791.96;1836289;78;20200;-76
2021/05/03 07:28:50;;;;;;;;;;;;;;;19.95;68.49;100776.11;1838069;78;20556;-75
2021/05/03 07:31:18;;;;;;;;;;;;;;;19.92;68.60;100779.06;1835251;78;20258;-77
2021/05/03 07:33:46;;;;;;;;;;;;;;;19.90;70.10;100779.72;1837412;78;22207;-73
2021/05/03 07:36:13;;;;;;;;;;;;;;;19.93;70.73;100783.36;1835215;78;20228;-76
2021/05/03 07:38:42;;;;;;;;;;;;;;;19.98;71.11;100783.69;1835471;78;20179;-78
2021/05/03 07:41:10;;;;;;;;;;;;;;;20.13;70.30;100791.34;1837167;78;20231;-74
2021/05/03 07:43:40;;;;;;;;;;;;;;;20.33;70.56;100787.47;1835229;78;20335;-73
2021/05/03 07:46:07;;;;;;;;;;;;;;;20.64;69.69;100785.56;1835211;78;21175;-77
2021/05/03 07:48:35;;;;;;;;;;;;;;;20.95;68.29;100787.89;1835153;78;20303;-77
2021/05/03 07:51:04;;;;;;;;;;;;;;;21.22;66.57;100782.80;1835212;78;20163;-74
2021/05/03 07:53:33;;;;;;;;;;;;;;;21.35;63.11;100782.59;1835471;78;20235;-75
2021/05/03 07:56:00;;;;;;;;;;;;;;;21.33;62.10;100774.03;1835428;78;20235;-77
2021/05/03 07:58:28;;;;;;;;;;;;;;;21.29;59.27;100774.52;1835201;78;21192;-77
2021/05/03 08:00:55;;;;;;;;;;;;;;;21.28;62.18;100769.77;1835134;78;20203;-76
2021/05/03 08:03:23;;;;;;;;;;;;;;;21.36;62.93;100764.95;1835401;78;20163;-76
2021/05/03 08:05:51;;;;;;;;;;;;;;;21.43;60.10;100766.76;1837333;78;20733;-73
2021/05/03 08:08:19;;;;;;;;;;;;;;;21.48;59.98;100770.19;1835277;78;20286;-73
2021/05/03 08:10:47;;;;;;;;;;;;;;;21.59;59.02;100772.00;1835351;78;21189;-77
2021/05/03 08:13:15;;;;;;;;;;;;;;;21.69;57.99;100761.73;1837415;78;20595;-72
2021/05/03 08:15:47;;;;;;;;;;;;;;;21.83;57.79;100767.11;1835064;78;20251;-74
2021/05/03 08:18:13;;;;;;;;;;;;;;;22.00;55.45;100770.05;1835197;78;20231;-71
2021/05/03 08:20:40;;;;;;;;;;;;;;;22.14;54.91;100769.30;1835449;78;20518;-71
2021/05/03 08:23:09;;;;;;;;;;;;;;;22.41;54.59;100778.59;1835262;78;21201;-74
2021/05/03 08:25:37;;;;;;;;;;;;;;;22.60;53.94;100779.45;1835023;78;20332;-73
2021/05/03 08:28:07;;;;;;;;;;;;;;;22.77;53.42;100787.30;1835152;78;20143;-76
2021/05/03 08:30:34;;;;;;;;;;;;;;;22.85;54.28;100783.26;1835244;78;20235;-71
2021/05/03 08:33:02;;;;;;;;;;;;;;;22.96;54.01;100784.18;1835265;78;20243;-75
2021/05/03 08:35:30;;;;;;;;;;;;;;;22.92;53.36;100786.35;1837256;78;21197;-74
2021/05/03 08:37:58;;;;;;;;;;;;;;;22.92;52.26;100778.41;1835692;78;20215;-72
2021/05/03 08:40:25;;;;;;;;;;;;;;;22.91;52.24;100783.90;1835639;78;20195;-75
2021/05/03 08:42:54;;;;;;;;;;;;;;;22.92;52.72;100784.20;1835401;78;20223;-75
2021/05/03 08:45:22;;;;;;;;;;;;;;;22.96;53.25;100783.69;1835186;78;20270;-77
2021/05/03 08:53:25;;;;;;;;;;;;;;;22.94;51.02;100792.28;1835090;78;20191;-78
2021/05/03 08:55:49;;;;;;;;;;;;;;;22.95;50.93;100791.29;1835022;77;20299;-76
2021/05/03 08:58:17;;;;;;;;;;;;;;;22.90;51.65;100793.66;1837360;78;20294;-78
2021/05/03 09:00:47;;;;;;;;;;;;;;;22.83;52.44;100791.89;1835264;78;21179;-75
2021/05/03 09:03:15;;;;;;;;;;;;;;;22.79;53.08;100781.33;1835062;78;20497;-74
2021/05/03 09:05:46;;;;;;;;;;;;;;;22.87;52.07;100782.60;1835085;78;20254;-76
2021/05/03 09:08:25;;;;;;;;;;;;;;;22.88;51.37;100781.09;1835071;78;20149;-76
2021/05/03 09:10:55;;;;;;;;;;;;;;;22.84;50.63;100786.44;1835020;78;20255;-76
2021/05/03 09:13:27;;;;;;;;;;;;;;;22.86;50.84;100795.01;1835209;78;21197;-77
2021/05/03 09:16:13;;;;;;;;;;;;;;;22.87;51.70;100796.66;1835101;78;20211;-70
2021/05/03 09:18:41;;;;;;;;;;;;;;;22.84;52.58;100800.16;1835076;78;20147;-76
2021/05/03 09:21:26;;;;;;;;;;;;;;;22.94;52.38;100804.72;1835138;78;20313;-74
2021/05/03 09:24:08;;;;;;;;;;;;;;;23.03;50.91;100816.39;1834422;78;20238;-75
2021/05/03 09:26:48;;;;;;;;;;;;;;;22.98;50.75;100818.72;1834887;78;21327;-72
2021/05/03 09:29:37;;;;;;;;;;;;;;;23.05;50.45;100819.66;1835025;78;20485;-75
2021/05/03 09:32:22;;;;;;;;;;;;;;;23.08;49.96;100817.16;1834692;78;20521;-78
2021/05/03 09:34:53;;;;;;;;;;;;;;;22.88;48.50;100807.55;1835105;78;20175;-71
2021/05/03 09:37:29;;;;;;;;;;;;;;;22.58;49.39;100808.41;1835128;78;20251;-76
2021/05/03 09:40:03;;;;;;;;;;;;;;;22.49;51.23;100808.97;1835314;78;21191;-72
2021/05/03 09:42:57;;;;;;;;;;;;;;;22.53;51.43;100807.59;1835164;78;20140;-72
2021/05/03 09:45:29;;;;;;;;;;;;;;;22.49;51.06;100804.17;1835136;78;20139;-74
2021/05/03 09:47:58;;;;;;;;;;;;;;;22.35;52.03;100806.22;1835069;78;20140;-74
2021/05/03 09:50:32;;;;;;;;;;;;;;;22.43;51.18;100811.48;1835017;78;37171;-72
2021/05/03 09:53:11;;;;;;;;;;;;;;;22.73;50.04;100816.43;1835000;78;21188;-75
2021/05/03 09:55:47;;;;;;;;;;;;;;;23.47;47.11;100814.36;1833520;78;20159;-77
2021/05/03 09:58:19;;;;;;;;;;;;;;;24.14;45.34;100807.16;1835389;78;20228;-73
2021/05/03 10:00:48;;;;;;;;;;;;;;;23.89;45.38;100803.96;1834966;78;20242;-73
2021/05/03 10:03:46;;;;;;;;;;;;;;;23.73;46.65;100809.45;1835269;78;20730;-73
2021/05/03 10:06:18;;;;;;;;;;;;;;;23.74;46.53;100816.90;1835059;78;21349;-72
2021/05/03 10:08:49;;;;;;;;;;;;;;;23.73;45.27;100829.32;1835081;78;20140;-74
2021/05/03 10:11:17;;;;;;;;;;;;;;;23.58;44.24;100828.50;1835145;78;20326;-72
2021/05/03 10:13:47;;;;;;;;;;;;;;;23.58;44.55;100847.84;1835159;78;20258;-76
2021/05/03 10:16:15;;;;;;;;;;;;;;;23.48;45.97;100843.83;1811741;78;20257;-69
2021/05/03 10:18:44;;;;;;;;;;;;;;;23.29;46.95;100835.86;1808312;78;21355;-71
2021/05/03 10:21:13;;;;;;;;;;;;;;;23.41;47.33;100848.19;1808283;79;20204;-77
2021/05/03 10:23:44;;;;;;;;;;;;;;;23.39;43.73;100846.20;1808542;78;20427;-75
2021/05/03 10:26:12;;;;;;;;;;;;;;;23.63;43.58;100850.78;1808295;79;20910;-75
2021/05/03 10:28:52;;;;;;;;;;;;;;;23.63;45.03;100842.01;1808561;78;20231;-72
2021/05/03 10:31:21;;;;;;;;;;;;;;;23.81;44.63;100836.34;1808302;79;22308;-72
2021/05/03 10:33:49;;;;;;;;;;;;;;;24.04;44.31;100839.23;1808448;78;20125;-75
2021/05/03 10:36:35;;;;;;;;;;;;;;;24.68;42.36;100848.69;1808277;78;20510;-76
2021/05/03 10:39:12;;;;;;;;;;;;;;;24.48;40.39;100843.66;1808221;78;20145;-74
2021/05/03 10:41:40;;;;;;;;;;;;;;;24.87;39.44;100856.06;1806001;78;20253;-70
2021/05/03 10:44:16;;;;;;;;;;;;;;;25.34;37.81;100849.33;1808270;79;21183;-77
2021/05/03 10:49:21;;;;;;;;;;;;;;;24.71;39.99;100854.95;1808370;79;20146;-76
2021/05/03 10:51:53;;;;;;;;;;;;;;;24.40;41.52;100848.59;1807156;79;20254;-77
2021/05/03 10:54:36;;;;;;;;;;;;;;;24.02;41.38;100860.31;1808298;79;20744;-75
2021/05/03 10:57:11;;;;;;;;;;;;;;;23.79;40.98;100864.36;1808175;79;22229;-74
2021/05/03 10:59:46;;;;;;;;;;;;;;;23.43;42.08;100875.31;1808378;78;20145;-75
2021/05/03 11:02:16;;;;;;;;;;;;;;;23.66;41.95;100881.39;1808412;79;20507;-76
2021/05/03 11:05:10;;;;;;;;;;;;;;;23.81;39.68;100876.09;1808310;79;20523;-75
2021/05/03 11:08:08;;;;;;;;;;;;;;;24.11;41.02;100873.32;1808520;78;20220;-76
2021/05/03 11:11:02;;;;;;;;;;;;;;;24.56;40.07;100869.59;1808525;78;21201;-74
2021/05/03 11:13:46;;;;;;;;;;;;;;;24.10;41.16;100870.31;1808480;78;20169;-74
2021/05/03 11:16:32;;;;;;;;;;;;;;;23.60;41.37;100880.30;1808305;78;20502;-73
2021/05/03 11:19:02;;;;;;;;;;;;;;;23.48;42.23;100871.64;1808225;79;20149;-77
2021/05/03 11:21:42;;;;;;;;;;;;;;;23.46;42.72;100881.07;1808440;79;20260;-74
2021/05/03 11:24:20;;;;;;;;;;;;;;;23.33;43.49;100874.70;1808330;79;21189;-76
2021/05/03 11:27:40;;;;;;;;;;;;;;;23.50;42.71;100888.16;1808518;78;20644;-74
2021/05/03 11:29:30;;;;;;;;;;;;;;;23.55;41.60;100884.46;1779838;79;20331;-74
2021/05/03 11:31:54;;;;;;;;;;;;;;;23.79;41.18;100865.69;1807670;79;20310;-81
2021/05/03 11:34:37;;;;;;;;;;;;;;;24.02;40.84;100874.39;1808327;79;20177;-73
2021/05/03 11:37:07;;;;;;;;;;;;;;;23.89;41.66;100876.02;1807879;79;22194;-74
2021/05/03 11:39:57;;;;;;;;;;;;;;;23.77;41.27;100878.81;1807723;79;20276;-72
2021/05/03 11:42:31;;;;;;;;;;;;;;;23.75;41.27;100868.38;1806925;79;20748;-76
2021/05/03 11:45:00;;;;;;;;;;;;;;;24.25;41.37;100858.91;1807030;79;20232;-73
2021/05/03 11:47:30;;;;;;;;;;;;;;;24.66;38.45;100858.69;1808471;79;20506;-75
2021/05/03 11:49:58;;;;;;;;;;;;;;;24.75;37.40;100862.36;1808450;78;21252;-72
2021/05/03 11:52:29;;;;;;;;;;;;;;;24.76;39.06;100861.33;1808366;79;20526;-75
2021/05/03 11:55:09;;;;;;;;;;;;;;;24.83;38.73;100852.64;1807955;78;20514;-75
2021/05/03 11:57:42;;;;;;;;;;;;;;;25.11;37.92;100854.34;1808372;78;20161;-72
2021/05/03 12:00:08;;;;;;;;;;;;;;;25.55;37.17;100858.13;1808384;79;20248;-71
2021/05/03 12:02:36;;;;;;;;;;;;;;;25.86;37.07;100859.54;1808348;78;21269;-76
2021/05/03 12:05:18;;;;;;;;;;;;;;;26.34;36.12;100851.94;1808154;79;20537;-74
2021/05/03 12:07:47;;;;;;;;;;;;;;;26.69;34.32;100863.31;1808297;78;20239;-75
2021/05/03 12:10:19;;;;;;;;;;;;;;;26.17;35.29;100863.92;1808321;79;20233;-75
2021/05/03 12:12:48;;;;;;;;;;;;;;;25.80;35.65;100858.49;1808248;79;20165;-76
2021/05/03 12:15:28;;;;;;;;;;;;;;;25.45;35.73;100872.22;1808237;78;21309;-71
2021/05/03 12:17:57;;;;;;;;;;;;;;;24.76;36.41;100870.62;1832605;78;20228;-75
2021/05/03 12:20:26;;;;;;;;;;;;;;;24.18;38.47;100870.75;1835286;78;20255;-74
2021/05/03 12:23:04;;;;;;;;;;;;;;;24.00;39.55;100883.51;1835193;78;20620;-75
2021/05/03 12:26:10;;;;;;;;;;;;;;;24.00;39.63;100884.34;1835121;78;20124;-74
2021/05/03 12:28:15;;;;;;;;;;;;;;;23.93;39.13;100879.44;1829648;78;21268;-72
2021/05/03 12:30:43;;;;;;;;;;;;;;;23.66;39.58;100874.27;1835182;78;20573;-77
2021/05/03 12:33:13;;;;;;;;;;;;;;;23.54;39.19;100872.23;1834997;78;20211;-74
2021/05/03 12:35:41;;;;;;;;;;;;;;;23.36;39.86;100877.81;1835062;78;20255;-73
2021/05/03 12:38:23;;;;;;;;;;;;;;;23.22;39.88;100872.48;1835074;78;20212;-73
2021/05/03 12:40:51;;;;;;;;;;;;;;;23.07;40.04;100873.77;1835075;78;21132;-76
2021/05/03 12:43:30;;;;;;;;;;;;;;;22.83;40.22;100881.86;1837277;78;20592;-73
2021/05/03 12:46:07;;;;;;;;;;;;;;;22.56;41.10;100877.34;1834971;78;20239;-78
2021/05/03 12:54:13;;;;;;;;;;;;;;;21.96;42.95;100897.40;1835119;78;21358;-73
2021/05/03 12:56:59;;;;;;;;;;;;;;;21.81;43.09;100915.73;1835027;78;20629;-76
2021/05/03 12:59:28;;;;;;;;;;;;;;;21.62;43.57;100923.52;1834988;78;20247;-75
2021/05/03 13:02:17;;;;;;;;;;;;;;;21.44;43.73;100940.01;1809955;78;20247;-73
2021/05/03 13:29:08;;;;;;;;;;;;;;;20.16;48.59;101010.22;1834927;78;20243;-75
2021/05/03 13:31:39;;;;;;;;;;;;;;;20.03;49.03;101011.45;1837579;78;20502;-77
2021/05/03 13:34:09;;;;;;;;;;;;;;;19.94;48.61;101008.91;1837158;78;21374;-72
2021/05/03 13:36:40;;;;;;;;;;;;;;;19.84;48.99;101001.59;1834932;78;20239;-73
2021/05/03 13:39:08;;;;;;;;;;;;;;;19.75;49.91;101004.62;1835078;78;20334;-74
2021/05/03 13:41:40;;;;;;;;;;;;;;;19.67;50.26;101003.25;1835170;78;20537;-73
2021/05/03 13:44:08;;;;;;;;;;;;;;;19.50;51.99;101016.75;1835286;78;20235;-70